Time,TemperatureF,DewpointF,PressureIn,WindDirection,WindDirectionDegrees,WindSpeedMPH,WindSpeedGustMPH,Humidity,HourlyPrecipIn,Conditions,Clouds,dailyrainin,SolarRadiationWatts/m^2,SoftwareType,DateUTC
2013-03-30 00:11:00,41.9,41.0,30.28,ENE,71,0.0,1.0,95,0.06,,,0.02,0,weatherlink.com 1.10,2013-03-30 04:11:00,
2013-03-30 00:26:00,41.9,41.0,30.28,ENE,71,0.0,1.0,95,0.08,,,0.04,0,weatherlink.com 1.10,2013-03-30 04:26:00,
2013-03-30 00:41:00,41.8,41.0,30.28,ENE,71,0.0,1.0,95,0.07,,,0.05,0,weatherlink.com 1.10,2013-03-30 04:41:00,
2013-03-30 00:56:00,41.8,41.0,30.28,ENE,71,0.0,1.0,96,0.05,,,0.05,0,weatherlink.com 1.10,2013-03-30 04:56:00,
2013-03-30 01:26:00,41.6,41.0,30.28,ENE,71,0.0,0.0,96,0.02,,,0.06,0,weatherlink.com 1.10,2013-03-30 05:26:00,
2013-03-30 01:41:00,41.6,41.0,30.27,ENE,71,0.0,1.0,96,0.02,,,0.07,0,weatherlink.com 1.10,2013-03-30 05:41:00,
2013-03-30 03:26:00,41.6,41.0,30.25,ENE,71,0.0,1.0,96,0.01,,,0.10,0,weatherlink.com 1.10,2013-03-30 07:26:00,
2013-03-30 03:41:00,41.6,41.0,30.25,ENE,71,0.0,1.0,97,0.01,,,0.10,0,weatherlink.com 1.10,2013-03-30 07:41:00,
2013-03-30 04:26:00,41.6,41.0,30.24,ENE,71,0.0,1.0,97,0.00,,,0.10,0,weatherlink.com 1.10,2013-03-30 08:26:00,
2013-03-30 04:41:00,41.5,41.0,30.24,ENE,71,0.0,0.0,97,0.00,,,0.10,0,weatherlink.com 1.10,2013-03-30 08:41:00,
2013-03-30 04:56:00,41.5,41.0,30.24,ENE,71,0.0,0.0,97,0.00,,,0.10,0,weatherlink.com 1.10,2013-03-30 08:56:00,
2013-03-30 05:11:00,41.5,41.0,30.23,ENE,71,0.0,1.0,97,0.00,,,0.10,0,weatherlink.com 1.10,2013-03-30 09:11:00,
2013-03-30 05:26:00,41.3,41.0,30.23,ENE,71,0.0,2.0,97,0.00,,,0.10,0,weatherlink.com 1.10,2013-03-30 09:26:00,
2013-03-30 05:41:00,41.3,41.0,30.23,ENE,71,0.0,0.0,97,0.00,,,0.10,0,weatherlink.com 1.10,2013-03-30 09:41:00,
2013-03-30 05:56:00,41.3,41.0,30.23,ENE,71,0.0,0.0,97,0.00,,,0.10,0,weatherlink.com 1.10,2013-03-30 09:56:00,
2013-03-30 06:11:00,41.3,41.0,30.23,ENE,71,0.0,0.0,97,0.00,,,0.10,0,weatherlink.com 1.10,2013-03-30 10:11:00,
2013-03-30 06:26:00,41.3,41.0,30.23,ENE,71,0.0,0.0,98,0.00,,,0.10,0,weatherlink.com 1.10,2013-03-30 10:26:00,
2013-03-30 06:41:00,41.3,41.0,30.23,ENE,71,0.0,0.0,98,0.00,,,0.10,0,weatherlink.com 1.10,2013-03-30 10:41:00,
2013-03-30 06:56:00,41.3,41.0,30.24,ENE,71,0.0,0.0,98,0.00,,,0.10,0,weatherlink.com 1.10,2013-03-30 10:56:00,
2013-03-30 07:11:00,41.3,41.0,30.24,ENE,71,0.0,0.0,98,0.00,,,0.10,0,weatherlink.com 1.10,2013-03-30 11:11:00,
2013-03-30 07:26:00,41.3,41.0,30.25,ENE,71,0.0,1.0,98,0.00,,,0.10,0,weatherlink.com 1.10,2013-03-30 11:26:00,
2013-03-30 07:41:00,41.3,41.0,30.25,ENE,71,0.0,0.0,98,0.00,,,0.10,0,weatherlink.com 1.10,2013-03-30 11:41:00,
2013-03-30 07:56:00,41.5,41.0,30.25,ENE,71,0.0,0.0,98,0.00,,,0.10,9,weatherlink.com 1.10,2013-03-30 11:56:00,
2013-03-30 08:11:00,41.5,41.0,30.25,ENE,71,0.0,2.0,98,0.00,,,0.10,12,weatherlink.com 1.10,2013-03-30 12:11:00,
2013-03-30 08:26:00,41.5,41.0,30.25,NNE,30,0.0,3.0,98,0.00,,,0.10,19,weatherlink.com 1.10,2013-03-30 12:26:00,
2013-03-30 08:41:00,41.6,41.0,30.26,NE,34,0.0,2.0,98,0.00,,,0.10,30,weatherlink.com 1.10,2013-03-30 12:41:00,
2013-03-30 08:56:00,41.6,41.0,30.26,NE,35,0.0,2.0,98,0.00,,,0.10,44,weatherlink.com 1.10,2013-03-30 12:56:00,
2013-03-30 09:11:00,41.9,41.0,30.26,NE,36,1.0,2.0,98,0.00,,,0.10,51,weatherlink.com 1.10,2013-03-30 13:11:00,
2013-03-30 09:26:00,41.9,41.0,30.26,ENE,62,2.0,2.0,98,0.00,,,0.10,63,weatherlink.com 1.10,2013-03-30 13:26:00,
2013-03-30 09:41:00,42.2,42.0,30.26,East,93,0.0,3.0,98,0.00,,,0.10,77,weatherlink.com 1.10,2013-03-30 13:41:00,
2013-03-30 09:56:00,42.5,42.0,30.25,NNE,30,0.0,2.0,98,0.00,,,0.10,97,weatherlink.com 1.10,2013-03-30 13:56:00,
2013-03-30 10:11:00,42.6,42.0,30.24,East,88,0.0,3.0,98,0.00,,,0.10,107,weatherlink.com 1.10,2013-03-30 14:11:00,
2013-03-30 10:26:00,43.2,43.0,30.25,East,83,1.0,2.0,98,0.00,,,0.10,151,weatherlink.com 1.10,2013-03-30 14:26:00,
2013-03-30 10:42:00,44.1,44.0,30.26,NE,43,0.0,1.0,98,0.00,,,0.10,165,weatherlink.com 1.10,2013-03-30 14:42:00,
2013-03-30 10:57:00,44.6,44.0,30.25,NE,44,0.0,2.0,98,0.00,,,0.10,250,weatherlink.com 1.10,2013-03-30 14:57:00,
2013-03-30 11:12:00,46.0,45.0,30.24,NE,50,0.0,2.0,97,0.00,,,0.10,265,weatherlink.com 1.10,2013-03-30 15:12:00,
2013-03-30 11:27:00,46.5,45.0,30.25,NE,40,0.0,1.0,95,0.00,,,0.10,230,weatherlink.com 1.10,2013-03-30 15:27:00,
2013-03-30 11:42:00,47.0,45.0,30.24,ENE,71,0.0,3.0,93,0.00,,,0.10,345,weatherlink.com 1.10,2013-03-30 15:42:00,
2013-03-30 11:57:00,48.0,45.0,30.23,ENE,65,0.0,3.0,89,0.00,,,0.10,399,weatherlink.com 1.10,2013-03-30 15:57:00,
2013-03-30 12:12:00,49.8,47.0,30.23,NNE,22,1.0,4.0,89,0.00,,,0.10,504,weatherlink.com 1.10,2013-03-30 16:12:00,
2013-03-30 12:27:00,50.8,46.0,30.22,ENE,76,0.0,2.0,82,0.00,,,0.10,510,weatherlink.com 1.10,2013-03-30 16:27:00,
2013-03-30 12:42:00,51.9,46.0,30.22,SE,139,0.0,3.0,80,0.00,,,0.10,483,weatherlink.com 1.10,2013-03-30 16:42:00,
2013-03-30 12:57:00,53.3,46.0,30.21,ENE,73,0.0,4.0,76,0.00,,,0.10,747,weatherlink.com 1.10,2013-03-30 16:57:00,
2013-03-30 13:12:00,54.7,47.0,30.21,SE,136,0.0,3.0,74,0.00,,,0.10,784,weatherlink.com 1.10,2013-03-30 17:12:00,
2013-03-30 13:27:00,54.8,46.0,30.20,SSW,196,0.0,3.0,72,0.00,,,0.10,761,weatherlink.com 1.10,2013-03-30 17:27:00,
2013-03-30 13:42:00,55.4,46.0,30.19,NE,44,2.0,2.0,72,0.00,,,0.10,758,weatherlink.com 1.10,2013-03-30 17:42:00,
2013-03-30 13:57:00,56.0,46.0,30.18,South,173,3.0,4.0,68,0.00,,,0.10,710,weatherlink.com 1.10,2013-03-30 17:57:00,
2013-03-30 14:12:00,56.9,47.0,30.18,South,186,0.0,1.0,69,0.00,,,0.10,501,weatherlink.com 1.10,2013-03-30 18:12:00,
2013-03-30 14:27:00,56.9,47.0,30.17,ENE,72,0.0,3.0,70,0.00,,,0.10,613,weatherlink.com 1.10,2013-03-30 18:27:00,
2013-03-30 14:42:00,57.0,45.0,30.16,ENE,68,2.0,2.0,65,0.00,,,0.10,466,weatherlink.com 1.10,2013-03-30 18:42:00,
2013-03-30 14:57:00,58.1,45.0,30.16,SSE,168,1.0,3.0,63,0.00,,,0.10,844,weatherlink.com 1.10,2013-03-30 18:57:00,
2013-03-30 15:12:00,59.0,45.0,30.15,SW,227,0.0,6.0,61,0.00,,,0.10,735,weatherlink.com 1.10,2013-03-30 19:12:00,
2013-03-30 15:27:00,59.3,47.0,30.14,NE,51,0.0,3.0,65,0.00,,,0.10,519,weatherlink.com 1.10,2013-03-30 19:27:00,
2013-03-30 15:42:00,60.1,46.0,30.13,WNW,298,0.0,4.0,60,0.00,,,0.10,506,weatherlink.com 1.10,2013-03-30 19:42:00,
2013-03-30 15:57:00,60.1,46.0,30.13,WNW,300,0.0,3.0,60,0.00,,,0.10,390,weatherlink.com 1.10,2013-03-30 19:57:00,
2013-03-30 16:13:00,60.1,46.0,30.12,SSW,195,0.0,3.0,61,0.00,,,0.10,399,weatherlink.com 1.10,2013-03-30 20:13:00,
2013-03-30 16:28:00,59.8,46.0,30.12,SW,215,0.0,5.0,60,0.00,,,0.10,283,weatherlink.com 1.10,2013-03-30 20:28:00,
2013-03-30 16:43:00,59.6,46.0,30.11,SW,218,0.0,2.0,61,0.00,,,0.10,246,weatherlink.com 1.10,2013-03-30 20:43:00,
2013-03-30 16:58:00,59.5,45.0,30.10,SSW,201,0.0,3.0,59,0.00,,,0.10,204,weatherlink.com 1.10,2013-03-30 20:58:00,
2013-03-30 17:13:00,59.3,46.0,30.09,SSW,201,0.0,1.0,62,0.00,,,0.10,202,weatherlink.com 1.10,2013-03-30 21:13:00,
2013-03-30 17:28:00,59.2,47.0,30.09,SSW,201,0.0,2.0,64,0.00,,,0.10,162,weatherlink.com 1.10,2013-03-30 21:28:00,
2013-03-30 17:43:00,58.9,47.0,30.09,SSW,204,0.0,0.0,64,0.00,,,0.10,135,weatherlink.com 1.10,2013-03-30 21:43:00,
2013-03-30 17:58:00,58.7,46.0,30.09,SSW,204,0.0,2.0,63,0.00,,,0.10,107,weatherlink.com 1.10,2013-03-30 21:58:00,
2013-03-30 18:13:00,58.7,47.0,30.08,SSW,204,0.0,0.0,65,0.00,,,0.10,109,weatherlink.com 1.10,2013-03-30 22:13:00,
2013-03-30 18:28:00,58.3,47.0,30.08,SSW,204,0.0,0.0,67,0.00,,,0.10,81,weatherlink.com 1.10,2013-03-30 22:28:00,
2013-03-30 18:43:00,58.4,47.0,30.08,SSW,202,0.0,0.0,65,0.00,,,0.10,60,weatherlink.com 1.10,2013-03-30 22:43:00,
2013-03-30 19:13:00,58.0,47.0,30.07,SSW,204,0.0,0.0,67,0.00,,,0.10,26,weatherlink.com 1.10,2013-03-30 23:13:00,
2013-03-30 19:28:00,57.5,47.0,30.07,SSW,204,0.0,0.0,68,0.00,,,0.10,16,weatherlink.com 1.10,2013-03-30 23:28:00,
2013-03-30 19:43:00,56.9,46.0,30.06,SSW,204,0.0,0.0,68,0.00,,,0.10,5,weatherlink.com 1.10,2013-03-30 23:43:00,
2013-03-30 19:58:00,56.2,46.0,30.06,SSW,204,0.0,0.0,69,0.00,,,0.10,0,weatherlink.com 1.10,2013-03-30 23:58:00,
2013-03-30 20:13:00,55.3,46.0,30.05,SSW,204,0.0,0.0,70,0.00,,,0.10,0,weatherlink.com 1.10,2013-03-31 00:13:00,
2013-03-30 20:28:00,54.4,45.0,30.05,SSW,204,0.0,0.0,71,0.00,,,0.10,0,weatherlink.com 1.10,2013-03-31 00:28:00,
2013-03-30 20:43:00,53.8,45.0,30.05,SSW,204,0.0,0.0,72,0.00,,,0.10,0,weatherlink.com 1.10,2013-03-31 00:43:00,
2013-03-30 20:58:00,53.3,45.0,30.05,SSW,204,0.0,0.0,74,0.00,,,0.10,0,weatherlink.com 1.10,2013-03-31 00:58:00,
2013-03-30 21:13:00,53.1,45.0,30.06,SSW,204,0.0,0.0,74,0.00,,,0.10,0,weatherlink.com 1.10,2013-03-31 01:13:00,
2013-03-30 21:28:00,53.2,45.0,30.06,SSW,204,0.0,0.0,75,0.00,,,0.10,0,weatherlink.com 1.10,2013-03-31 01:28:00,
2013-03-30 21:43:00,53.3,46.0,30.07,SSW,204,0.0,0.0,77,0.00,,,0.10,0,weatherlink.com 1.10,2013-03-31 01:43:00,
2013-03-30 21:58:00,53.5,47.0,30.07,SSW,204,0.0,1.0,79,0.01,,,0.11,0,weatherlink.com 1.10,2013-03-31 01:58:00,
2013-03-30 22:13:00,53.3,47.0,30.07,SSW,204,0.0,0.0,80,0.02,,,0.12,0,weatherlink.com 1.10,2013-03-31 02:13:00,
2013-03-30 22:28:00,52.9,47.0,30.07,SSW,204,0.0,0.0,81,0.04,,,0.14,0,weatherlink.com 1.10,2013-03-31 02:28:00,
2013-03-30 22:43:00,52.5,47.0,30.06,SSW,204,0.0,0.0,81,0.05,,,0.15,0,weatherlink.com 1.10,2013-03-31 02:43:00,
2013-03-30 22:58:00,52.2,47.0,30.06,SSW,204,0.0,0.0,82,0.06,,,0.17,0,weatherlink.com 1.10,2013-03-31 02:58:00,
2013-03-30 23:13:00,51.7,47.0,30.05,SSW,204,0.0,0.0,83,0.06,,,0.18,0,weatherlink.com 1.10,2013-03-31 03:13:00,
2013-03-30 23:28:00,51.6,47.0,30.04,SSW,204,0.0,0.0,84,0.05,,,0.19,0,weatherlink.com 1.10,2013-03-31 03:28:00,
2013-03-30 23:43:00,51.3,47.0,30.04,SSW,204,0.0,0.0,85,0.05,,,0.20,0,weatherlink.com 1.10,2013-03-31 03:43:00,
2013-03-30 23:58:00,51.0,47.0,30.03,SSW,204,0.0,0.0,86,0.04,,,0.21,0,weatherlink.com 1.10,2013-03-31 03:58:00,